createdAt,value
2023-03-04T00:00:48.173Z,96.63
2023-03-04T00:03:15.905Z,97.17
2023-03-04T00:05:43.824Z,98.24
2023-03-04T00:08:11.114Z,96.93
2023-03-04T00:10:38.911Z,97.63
2023-03-04T00:13:06.239Z,97.99
2023-03-04T00:15:33.483Z,98.84
2023-03-04T00:18:01.090Z,98.62
2023-03-04T00:20:28.544Z,98.62
2023-03-04T00:22:55.803Z,99.44
2023-03-04T00:25:23.388Z,99.86
2023-03-04T00:27:50.802Z,100.00
2023-03-04T00:30:18.206Z,100.00
2023-03-04T00:32:45.993Z,100.00
2023-03-04T00:35:13.438Z,100.00
2023-03-04T00:37:40.687Z,100.00
2023-03-04T00:40:09.736Z,100.00
2023-03-04T00:42:37.270Z,100.00
2023-03-04T00:45:06.044Z,100.00
2023-03-04T00:47:33.652Z,100.00
2023-03-04T00:50:01.039Z,99.69
2023-03-04T00:52:28.686Z,99.24
2023-03-04T00:54:56.511Z,99.97
2023-03-04T00:57:23.802Z,99.99
2023-03-04T00:59:51.269Z,100.00
2023-03-04T01:02:19.117Z,100.00
2023-03-04T01:04:46.825Z,100.00
2023-03-04T01:07:14.221Z,100.00
2023-03-04T01:09:41.815Z,100.00
2023-03-04T01:12:09.237Z,100.00
2023-03-04T01:14:37.655Z,99.65
2023-03-04T01:17:05.378Z,99.93
2023-03-04T01:19:32.808Z,99.95
2023-03-04T01:22:00.890Z,99.46
2023-03-04T01:24:30.111Z,98.94
2023-03-04T01:26:57.524Z,99.24
2023-03-04T01:29:24.856Z,99.29
2023-03-04T01:31:52.580Z,98.97
2023-03-04T01:34:20.774Z,98.82
2023-03-04T01:36:48.181Z,98.93
2023-03-04T01:39:15.873Z,98.70
2023-03-04T01:41:43.557Z,98.71
2023-03-04T01:44:12.302Z,98.97
2023-03-04T01:46:42.745Z,99.10
2023-03-04T01:49:14.417Z,99.90
2023-03-04T01:51:46.475Z,100.00
2023-03-04T01:54:13.932Z,100.00
2023-03-04T01:56:41.798Z,99.53
2023-03-04T01:59:18.589Z,99.05
2023-03-04T02:01:50.075Z,100.00
2023-03-04T02:04:20.894Z,100.00
2023-03-04T02:06:49.274Z,100.00
2023-03-04T02:09:18.154Z,100.00
2023-03-04T02:11:47.548Z,100.00
2023-03-04T02:14:15.723Z,100.00
2023-03-04T02:16:44.568Z,100.00
2023-03-04T02:19:32.106Z,100.00
2023-03-04T02:21:59.867Z,100.00
2023-03-04T02:24:53.540Z,100.00
2023-03-04T02:27:22.191Z,100.00
2023-03-04T02:29:49.913Z,100.00
2023-03-04T02:32:17.547Z,100.00
2023-03-04T02:34:50.957Z,100.00
2023-03-04T02:37:20.467Z,100.00
2023-03-04T02:39:50.084Z,100.00
2023-03-04T02:42:18.691Z,99.60
2023-03-04T02:44:48.538Z,99.96
2023-03-04T02:47:18.822Z,99.37
2023-03-04T02:49:46.947Z,99.82
2023-03-04T02:52:18.524Z,99.62
2023-03-04T02:54:46.549Z,99.76
2023-03-04T02:57:15.324Z,99.72
2023-03-04T02:59:43.101Z,99.73
2023-03-04T03:02:11.504Z,99.57
2023-03-04T03:04:40.275Z,100.00
2023-03-04T03:07:08.746Z,100.00
2023-03-04T03:09:36.532Z,100.00
2023-03-04T03:12:03.938Z,100.00
2023-03-04T03:14:31.535Z,100.00
2023-03-04T03:16:59.207Z,100.00
2023-03-04T03:19:26.534Z,100.00
2023-03-04T03:21:54.193Z,98.75
2023-03-04T03:24:21.899Z,99.63
2023-03-04T03:26:49.279Z,99.47
2023-03-04T03:29:16.579Z,98.75
2023-03-04T03:31:44.395Z,99.39
2023-03-04T03:34:11.927Z,99.74
2023-03-04T03:36:39.248Z,99.17
2023-03-04T03:39:07.557Z,97.84
2023-03-04T03:41:34.929Z,98.36
2023-03-04T03:44:02.705Z,98.68
2023-03-04T03:46:30.254Z,98.31
2023-03-04T03:48:57.440Z,98.18
2023-03-04T03:51:24.709Z,97.25
2023-03-04T03:53:52.221Z,98.59
2023-03-04T03:56:19.548Z,98.70
2023-03-04T03:58:46.714Z,98.22
2023-03-04T04:01:14.265Z,97.89
2023-03-04T04:03:41.932Z,97.64
2023-03-04T04:06:09.270Z,97.31
2023-03-04T04:08:36.649Z,97.10
2023-03-04T04:11:04.418Z,96.89
2023-03-04T04:13:31.650Z,96.91
2023-03-04T04:15:59.787Z,97.26
2023-03-04T04:18:27.427Z,97.68
2023-03-04T04:20:54.971Z,97.73
2023-03-04T04:23:22.629Z,98.32
2023-03-04T04:25:50.232Z,97.56
2023-03-04T04:28:17.486Z,97.61
2023-03-04T04:30:44.806Z,97.26
2023-03-04T04:33:12.785Z,97.45
2023-03-04T04:35:41.872Z,97.83
2023-03-04T04:38:10.354Z,98.39
2023-03-04T04:40:38.013Z,98.16
2023-03-04T04:43:05.391Z,98.32
2023-03-04T04:45:32.728Z,98.33
2023-03-04T04:48:00.489Z,98.71
2023-03-04T04:50:28.329Z,98.82
2023-03-04T04:52:55.612Z,98.24
2023-03-04T04:55:23.233Z,98.30
2023-03-04T04:57:50.689Z,98.71
2023-03-04T05:00:19.196Z,98.50
2023-03-04T05:02:46.856Z,98.20
2023-03-04T05:05:14.140Z,97.99
2023-03-04T05:07:41.479Z,98.01
2023-03-04T05:10:10.084Z,97.13
2023-03-04T05:12:37.436Z,96.10
2023-03-04T05:15:05.088Z,97.86
2023-03-04T05:17:32.829Z,98.75
2023-03-04T05:20:00.127Z,99.05
2023-03-04T05:22:27.599Z,100.00
2023-03-04T05:24:55.464Z,100.00
2023-03-04T05:27:22.772Z,99.92
2023-03-04T05:29:50.290Z,99.54
2023-03-04T05:32:18.140Z,99.35
2023-03-04T05:34:45.517Z,99.68
2023-03-04T05:37:12.935Z,99.71
2023-03-04T05:39:40.632Z,99.99
2023-03-04T05:42:07.973Z,99.92
2023-03-04T05:44:35.399Z,97.59
2023-03-04T05:47:03.181Z,97.67
2023-03-04T05:49:30.526Z,98.06
2023-03-04T05:51:58.125Z,96.84
2023-03-04T05:54:26.225Z,96.64
2023-03-04T05:56:55.225Z,97.69
2023-03-04T05:59:23.809Z,99.07
2023-03-04T06:01:52.374Z,98.84
2023-03-04T06:04:20.586Z,97.75
2023-03-04T06:06:48.104Z,97.47
2023-03-04T06:09:15.965Z,98.12
2023-03-04T06:11:43.654Z,97.59
2023-03-04T06:14:11.090Z,98.72
2023-03-04T06:16:38.752Z,99.02
2023-03-04T06:19:06.434Z,99.60
2023-03-04T06:21:33.803Z,98.69
2023-03-04T06:24:01.135Z,98.03
2023-03-04T06:26:28.810Z,98.70
2023-03-04T06:28:57.458Z,99.68
2023-03-04T06:31:24.889Z,99.44
2023-03-04T06:33:52.540Z,99.18
2023-03-04T06:36:20.434Z,98.32
2023-03-04T06:38:47.760Z,98.54
2023-03-04T06:41:15.854Z,98.54
2023-03-04T06:43:43.895Z,95.92
2023-03-04T06:46:11.656Z,95.64
2023-03-04T06:48:39.604Z,97.92
2023-03-04T06:51:11.731Z,97.35
2023-03-04T06:53:39.739Z,100.00
2023-03-04T06:56:09.450Z,100.00
2023-03-04T06:58:37.103Z,100.00
2023-03-04T07:01:13.260Z,99.80
2023-03-04T07:03:41.230Z,98.76
2023-03-04T07:06:14.939Z,98.27
2023-03-04T07:08:43.282Z,97.33
2023-03-04T07:11:11.917Z,97.36
2023-03-04T07:13:39.537Z,95.19
2023-03-04T07:16:13.221Z,94.95
2023-03-04T07:18:41.121Z,94.45
2023-03-04T07:21:08.747Z,94.64
2023-03-04T07:23:37.195Z,94.09
2023-03-04T07:26:05.404Z,93.34
2023-03-04T07:28:33.271Z,94.53
2023-03-04T07:31:14.420Z,93.24
2023-03-04T07:33:42.851Z,92.25
2023-03-04T07:36:11.470Z,90.72
2023-03-04T07:38:38.938Z,91.15
2023-03-04T07:41:06.694Z,89.96
2023-03-04T07:43:34.073Z,88.37
2023-03-04T07:46:02.406Z,89.28
2023-03-04T07:48:30.262Z,88.62
2023-03-04T07:51:06.230Z,90.16
2023-03-04T07:53:34.629Z,89.94
2023-03-04T07:56:02.773Z,90.30
2023-03-04T07:58:30.731Z,88.57
2023-03-04T08:00:58.621Z,88.09
2023-03-04T08:03:26.363Z,85.54
2023-03-04T08:05:53.590Z,86.64
2023-03-04T08:08:20.893Z,86.01
2023-03-04T08:10:48.482Z,86.62
2023-03-04T08:13:15.854Z,86.09
2023-03-04T08:15:43.705Z,86.47
2023-03-04T08:18:12.704Z,87.80
2023-03-04T08:20:43.783Z,86.57
2023-03-04T08:23:11.716Z,84.20
2023-03-04T08:25:41.473Z,84.82
2023-03-04T08:28:10.073Z,84.94
2023-03-04T08:30:37.932Z,86.37
2023-03-04T08:33:06.052Z,86.00
2023-03-04T08:35:36.970Z,86.25
2023-03-04T08:38:05.583Z,85.45
2023-03-04T08:40:33.391Z,86.93
2023-03-04T08:43:05.337Z,87.07
2023-03-04T08:45:34.257Z,87.55
2023-03-04T08:48:03.024Z,87.80
2023-03-04T08:50:30.403Z,85.59
2023-03-04T08:52:59.646Z,86.11
2023-03-04T08:55:27.066Z,84.91
2023-03-04T08:57:54.869Z,86.36
2023-03-04T09:00:23.949Z,85.79
2023-03-04T09:02:51.250Z,86.18
2023-03-04T09:05:18.870Z,86.22
2023-03-04T09:07:47.490Z,86.26
2023-03-04T09:10:14.988Z,84.67
2023-03-04T09:12:42.377Z,85.33
2023-03-04T09:15:12.010Z,84.45
2023-03-04T09:17:40.889Z,84.72
2023-03-04T09:20:10.883Z,83.14
2023-03-04T09:22:39.304Z,83.88
2023-03-04T09:25:11.592Z,81.10
2023-03-04T09:27:42.274Z,83.04
2023-03-04T09:30:10.738Z,82.79
2023-03-04T09:32:38.452Z,83.06
2023-03-04T09:35:06.661Z,84.50
2023-03-04T09:37:34.760Z,80.95
2023-03-04T09:40:05.367Z,79.57
2023-03-04T09:42:47.378Z,82.90
2023-03-04T09:45:20.567Z,81.50
2023-03-04T09:47:51.171Z,79.09
2023-03-04T09:50:20.638Z,78.55
2023-03-04T09:53:08.342Z,78.43
2023-03-04T09:55:39.965Z,75.95
2023-03-04T09:58:14.507Z,76.09
2023-03-04T10:00:57.238Z,75.01
2023-03-04T10:03:33.055Z,74.98
2023-03-04T10:06:10.051Z,78.94
2023-03-04T10:08:40.521Z,76.41
2023-03-04T10:11:41.714Z,78.93
2023-03-04T10:14:22.004Z,76.38
2023-03-04T10:16:59.566Z,78.24
2023-03-04T10:19:45.798Z,77.22
2023-03-04T10:22:39.647Z,75.71
2023-03-04T10:25:21.201Z,75.16
2023-03-04T10:27:52.249Z,74.99
2023-03-04T10:30:58.712Z,77.98
2023-03-04T10:33:30.727Z,77.59
2023-03-04T10:36:01.077Z,74.47
2023-03-04T10:38:32.390Z,77.08
2023-03-04T10:41:01.028Z,76.86
2023-03-04T10:43:28.920Z,75.04
2023-03-04T10:45:58.923Z,76.22
2023-03-04T10:48:28.417Z,74.72
2023-03-04T10:51:29.416Z,75.51
2023-03-04T10:54:21.839Z,74.09
2023-03-04T10:57:03.145Z,75.56
2023-03-04T10:59:39.180Z,75.27
2023-03-04T11:02:19.764Z,74.13
2023-03-04T11:05:05.143Z,73.88
2023-03-04T11:07:53.475Z,73.53
2023-03-04T11:10:41.079Z,73.53
2023-03-04T11:13:11.435Z,73.79
2023-03-04T11:16:06.431Z,71.98
2023-03-04T11:18:55.653Z,72.77
2023-03-04T11:21:33.079Z,70.25
2023-03-04T11:24:29.040Z,71.54
2023-03-04T11:27:07.644Z,70.85
2023-03-04T11:29:52.061Z,73.34
2023-03-04T11:32:28.781Z,71.96
2023-03-04T11:35:08.335Z,72.37
2023-03-04T11:37:44.171Z,73.37
2023-03-04T11:40:16.576Z,72.89
2023-03-04T11:42:51.461Z,72.02
2023-03-04T11:45:56.050Z,71.50
2023-03-04T11:48:35.043Z,72.38
2023-03-04T11:51:05.837Z,70.73
2023-03-04T11:53:48.624Z,69.80
2023-03-04T11:56:37.050Z,71.16
2023-03-04T11:59:23.450Z,71.36
2023-03-04T12:02:09.409Z,72.01
2023-03-04T12:04:58.895Z,72.82
2023-03-04T12:07:59.781Z,74.62
2023-03-04T12:10:46.304Z,75.70
2023-03-04T12:13:31.267Z,75.36
2023-03-04T12:16:14.320Z,76.28
2023-03-04T12:18:50.240Z,76.68
2023-03-04T12:21:42.741Z,79.08
2023-03-04T12:24:28.179Z,79.68
2023-03-04T12:27:05.488Z,79.93
2023-03-04T12:29:53.006Z,81.41
2023-03-04T12:32:37.410Z,81.30
2023-03-04T12:35:26.198Z,81.10
2023-03-04T12:38:19.297Z,81.19
2023-03-04T12:41:01.226Z,81.35
2023-03-04T12:43:36.539Z,81.63
2023-03-04T12:46:25.879Z,81.42
2023-03-04T12:48:53.547Z,81.64
2023-03-04T12:51:30.123Z,81.34
2023-03-04T12:54:31.090Z,81.62
2023-03-04T12:57:03.107Z,81.38
2023-03-04T12:59:38.180Z,81.52
2023-03-04T13:02:30.191Z,78.83
2023-03-04T13:05:04.049Z,78.19
2023-03-04T13:07:48.980Z,80.00
2023-03-04T13:10:23.929Z,80.04
2023-03-04T13:12:57.368Z,77.96
2023-03-04T13:15:25.107Z,78.85
2023-03-04T13:17:54.616Z,78.80
2023-03-04T13:20:31.009Z,78.95
2023-03-04T13:23:07.671Z,77.95
2023-03-04T13:25:39.675Z,76.62
2023-03-04T13:28:11.169Z,76.67
2023-03-04T13:30:40.171Z,75.03
2023-03-04T13:33:11.082Z,75.19
2023-03-04T13:35:48.127Z,76.13
2023-03-04T13:38:35.169Z,76.37
2023-03-04T13:41:05.960Z,76.61
2023-03-04T13:43:44.144Z,76.44
2023-03-04T13:46:20.787Z,74.21
2023-03-04T13:48:52.812Z,74.45
2023-03-04T13:51:46.601Z,75.53
2023-03-04T13:54:27.803Z,74.27
2023-03-04T13:57:01.269Z,74.14
2023-03-04T13:59:43.376Z,75.01
2023-03-04T14:02:22.280Z,73.93
2023-03-04T14:05:01.324Z,75.38
2023-03-04T14:07:34.297Z,75.45
2023-03-04T14:10:12.783Z,73.97
2023-03-04T14:12:50.537Z,72.44
2023-03-04T14:15:23.420Z,74.15
2023-03-04T14:17:54.924Z,71.51
2023-03-04T14:20:41.644Z,72.12
2023-03-04T14:23:32.199Z,72.75
2023-03-04T14:26:11.626Z,71.68
2023-03-04T14:28:44.926Z,71.23
2023-03-04T14:31:17.888Z,71.62
2023-03-04T14:33:51.332Z,70.65
2023-03-04T14:36:22.012Z,71.81
2023-03-04T14:38:59.074Z,72.08
2023-03-04T14:41:40.793Z,71.20
2023-03-04T14:44:12.445Z,70.94
2023-03-04T14:47:04.534Z,71.32
2023-03-04T14:49:39.722Z,70.51
2023-03-04T14:52:08.064Z,71.04
2023-03-04T14:54:37.174Z,70.81
2023-03-04T14:57:30.064Z,70.54
2023-03-04T15:00:13.925Z,69.44
2023-03-04T15:02:41.565Z,69.83
2023-03-04T15:05:26.316Z,70.29
2023-03-04T15:08:04.972Z,70.53
2023-03-04T15:10:38.240Z,71.35
2023-03-04T15:13:08.735Z,70.94
2023-03-04T15:15:45.244Z,70.97
2023-03-04T15:18:22.113Z,70.71
2023-03-04T15:21:22.097Z,71.79
2023-03-04T15:23:49.533Z,72.02
2023-03-04T15:26:17.350Z,71.95
2023-03-04T15:28:44.889Z,70.48
2023-03-04T15:31:18.169Z,71.57
2023-03-04T15:33:46.256Z,72.93
2023-03-04T15:36:22.001Z,74.10
2023-03-04T15:38:52.474Z,73.87
2023-03-04T15:41:25.916Z,74.33
2023-03-04T15:43:54.788Z,74.33
2023-03-04T15:46:23.202Z,75.33
2023-03-04T15:48:50.735Z,75.26
2023-03-04T15:51:22.437Z,75.02
2023-03-04T15:53:55.915Z,74.79
2023-03-04T15:56:27.040Z,74.70
2023-03-04T15:58:57.148Z,76.90
2023-03-04T16:01:25.588Z,77.22
2023-03-04T16:03:53.882Z,78.16
2023-03-04T16:06:23.577Z,78.13
2023-03-04T16:08:52.432Z,77.67
2023-03-04T16:11:24.524Z,78.52
2023-03-04T16:13:52.028Z,79.12
2023-03-04T16:16:20.194Z,80.00
2023-03-04T16:18:47.934Z,80.12
2023-03-04T16:21:19.105Z,80.11
2023-03-04T16:23:49.903Z,80.23
2023-03-04T16:26:35.888Z,81.65
2023-03-04T16:29:03.680Z,82.04
2023-03-04T16:31:31.208Z,81.23
2023-03-04T16:33:58.842Z,81.24
2023-03-04T16:36:29.338Z,81.20
2023-03-04T16:38:59.710Z,82.19
2023-03-04T16:41:30.790Z,83.19
2023-03-04T16:44:02.063Z,82.34
2023-03-04T16:46:30.403Z,82.14
2023-03-04T16:48:57.808Z,81.89
2023-03-04T16:51:25.189Z,83.41
2023-03-04T16:53:56.816Z,83.51
2023-03-04T16:56:24.374Z,83.51
2023-03-04T16:58:54.314Z,83.01
2023-03-04T17:01:27.913Z,86.21
2023-03-04T17:03:56.000Z,85.25
2023-03-04T17:06:24.325Z,84.93
2023-03-04T17:08:52.121Z,85.67
2023-03-04T17:11:23.041Z,85.43
2023-03-04T17:13:51.974Z,85.63
2023-03-04T17:16:19.480Z,84.68
2023-03-04T17:18:46.907Z,84.40
2023-03-04T17:21:21.066Z,86.28
2023-03-04T17:23:48.679Z,86.92
2023-03-04T17:26:21.062Z,86.83
2023-03-04T17:28:50.583Z,87.63
2023-03-04T17:31:20.374Z,87.52
2023-03-04T17:33:48.589Z,86.98
2023-03-04T17:36:17.585Z,87.15
2023-03-04T17:38:45.951Z,86.43
2023-03-04T17:41:17.665Z,86.90
2023-03-04T17:43:47.277Z,87.68
2023-03-04T17:46:15.497Z,88.14
2023-03-04T17:48:43.575Z,88.58
2023-03-04T17:51:12.105Z,88.41
2023-03-04T17:53:39.802Z,87.95
2023-03-04T17:56:09.220Z,87.38
2023-03-04T17:58:37.574Z,87.35
2023-03-04T18:01:07.743Z,88.02
2023-03-04T18:03:35.534Z,88.00
2023-03-04T18:06:02.944Z,87.29
2023-03-04T18:08:30.310Z,87.13
2023-03-04T18:10:58.239Z,87.71
2023-03-04T18:13:25.685Z,87.62
2023-03-04T18:15:53.317Z,88.33
2023-03-04T18:18:23.039Z,89.08
2023-03-04T18:20:50.518Z,88.15
2023-03-04T18:23:17.924Z,87.96
2023-03-04T18:25:45.613Z,87.99
2023-03-04T18:28:13.052Z,87.72
2023-03-04T18:30:40.559Z,87.81
2023-03-04T18:33:08.551Z,88.67
2023-03-04T18:35:36.267Z,87.56
2023-03-04T18:38:03.769Z,87.67
2023-03-04T18:40:31.906Z,87.77
2023-03-04T18:43:00.284Z,88.49
2023-03-04T18:45:27.815Z,88.65
2023-03-04T18:47:55.802Z,88.22
2023-03-04T18:50:23.816Z,88.12
2023-03-04T18:52:55.797Z,88.77
2023-03-04T18:55:24.673Z,89.29
2023-03-04T18:57:55.569Z,91.95
2023-03-04T19:00:24.855Z,92.02
2023-03-04T19:03:03.120Z,91.79
2023-03-04T19:05:32.561Z,91.51
2023-03-04T19:08:00.355Z,90.44
2023-03-04T19:10:29.223Z,90.46
2023-03-04T19:12:59.649Z,90.68
2023-03-04T19:15:27.920Z,90.42
2023-03-04T19:17:55.656Z,89.37
2023-03-04T19:20:23.518Z,88.92
2023-03-04T19:22:51.509Z,89.52
2023-03-04T19:25:18.922Z,89.80
2023-03-04T19:27:46.677Z,89.43
2023-03-04T19:30:14.364Z,89.87
2023-03-04T19:32:41.731Z,90.11
2023-03-04T19:35:09.638Z,90.70
2023-03-04T19:37:37.027Z,91.09
2023-03-04T19:40:04.757Z,90.35
2023-03-04T19:42:32.570Z,89.90
2023-03-04T19:45:01.803Z,90.37
2023-03-04T19:47:30.156Z,89.58
2023-03-04T19:49:57.975Z,89.38
2023-03-04T19:52:25.281Z,89.18
2023-03-04T19:54:52.731Z,88.69
2023-03-04T19:57:20.477Z,89.92
2023-03-04T19:59:47.796Z,90.37
2023-03-04T20:02:15.385Z,89.19
2023-03-04T20:04:43.302Z,89.09
2023-03-04T20:07:10.887Z,88.60
2023-03-04T20:09:38.342Z,88.59
2023-03-04T20:12:06.675Z,88.36
2023-03-04T20:14:36.224Z,88.29
2023-03-04T20:17:07.222Z,87.21
2023-03-04T20:19:35.445Z,88.73
2023-03-04T20:22:05.822Z,88.34
2023-03-04T20:24:33.531Z,88.17
2023-03-04T20:27:01.445Z,89.08
2023-03-04T20:29:29.102Z,88.96
2023-03-04T20:31:56.642Z,89.27
2023-03-04T20:34:26.909Z,88.98
2023-03-04T20:36:54.234Z,89.60
2023-03-04T20:39:29.138Z,89.36
2023-03-04T20:41:58.892Z,89.38
2023-03-04T20:44:27.082Z,88.97
2023-03-04T20:46:54.521Z,89.47
2023-03-04T20:49:27.904Z,89.53
2023-03-04T20:51:59.639Z,90.32
2023-03-04T20:54:27.396Z,90.52
2023-03-04T20:56:54.805Z,90.17
2023-03-04T20:59:22.509Z,88.35
2023-03-04T21:01:50.436Z,89.53
2023-03-04T21:04:19.655Z,91.56
2023-03-04T21:06:48.525Z,91.02
2023-03-04T21:09:17.955Z,91.57
2023-03-04T21:11:46.057Z,92.62
2023-03-04T21:14:25.875Z,93.95
2023-03-04T21:16:56.330Z,96.01
2023-03-04T21:19:27.674Z,96.01
2023-03-04T21:21:56.837Z,96.34
2023-03-04T21:24:26.811Z,95.96
2023-03-04T21:26:54.482Z,97.76
2023-03-04T21:29:24.318Z,98.93
2023-03-04T21:32:09.764Z,99.53
2023-03-04T21:34:42.720Z,99.00
2023-03-04T21:37:10.392Z,97.59
2023-03-04T21:39:37.782Z,96.10
2023-03-04T21:42:06.198Z,96.12
2023-03-04T21:44:48.162Z,95.84
2023-03-04T21:47:17.428Z,95.18
2023-03-04T21:49:44.861Z,95.04
2023-03-04T21:52:13.273Z,94.70
2023-03-04T21:54:41.235Z,94.72
2023-03-04T21:57:08.742Z,95.15
2023-03-04T21:59:36.205Z,94.68
2023-03-04T22:02:04.065Z,95.23
2023-03-04T22:04:31.766Z,93.99
2023-03-04T22:06:59.244Z,93.95
2023-03-04T22:09:26.741Z,94.83
2023-03-04T22:11:54.419Z,94.69
2023-03-04T22:14:21.710Z,94.13
2023-03-04T22:16:55.368Z,94.15
2023-03-04T22:19:26.247Z,93.71
2023-03-04T22:21:54.007Z,94.30
2023-03-04T22:24:22.226Z,94.69
2023-03-04T22:26:49.873Z,94.53
2023-03-04T22:29:17.231Z,95.51
2023-03-04T22:31:45.665Z,95.00
2023-03-04T22:34:15.580Z,95.55
2023-03-04T22:36:45.212Z,96.21
2023-03-04T22:39:16.432Z,95.61
2023-03-04T22:41:43.989Z,95.66
2023-03-04T22:44:11.489Z,95.22
2023-03-04T22:46:39.439Z,94.82
2023-03-04T22:49:10.175Z,95.91
2023-03-04T22:51:38.556Z,95.62
2023-03-04T22:54:06.335Z,96.33
2023-03-04T22:56:34.045Z,96.61
2023-03-04T22:59:01.506Z,96.49
2023-03-04T23:01:29.295Z,97.29
2023-03-04T23:03:56.677Z,97.44
2023-03-04T23:06:26.144Z,97.57
2023-03-04T23:08:54.097Z,97.69
2023-03-04T23:11:27.252Z,97.76
2023-03-04T23:13:55.823Z,97.64
2023-03-04T23:16:24.465Z,97.15
2023-03-04T23:18:53.419Z,96.97
2023-03-04T23:21:23.769Z,96.70
2023-03-04T23:23:52.414Z,95.63
2023-03-04T23:26:26.263Z,94.90
2023-03-04T23:29:00.517Z,95.83
2023-03-04T23:31:32.962Z,96.07
2023-03-04T23:34:01.828Z,96.22
2023-03-04T23:36:34.157Z,96.10
2023-03-04T23:39:02.257Z,95.53
2023-03-04T23:41:31.241Z,95.40
2023-03-04T23:43:59.708Z,95.29
2023-03-04T23:46:28.441Z,95.82
2023-03-04T23:48:56.605Z,96.68
2023-03-04T23:51:26.935Z,96.62
2023-03-04T23:53:55.419Z,96.29
2023-03-04T23:56:26.718Z,96.37
2023-03-04T23:58:55.008Z,96.14
